Time;durP1;ratioP1;P1;durP2;ratioP2;P2;SDS_P1;SDS_P2;PMS_P1;PMS_P2;Temp;Humidity;BMP_temperature;BMP_pressure;BME280_temperature;BME280_humidity;BME280_pressure;Samples;Min_cycle;Max_cycle;Signal;HPM_P1;HPM_P2
2022/01/09 00:00:24;;;;;;;5.70;4.07;;;6.00;95.70;;;;;;5023386;28;20022;-68
2022/01/09 00:02:51;;;;;;;7.70;4.80;;;6.00;95.80;;;;;;5025701;28;20029;-68
2022/01/09 00:05:17;;;;;;;7.03;4.60;;;6.00;95.80;;;;;;5023272;28;20033;-68
2022/01/09 00:07:43;;;;;;;5.88;4.57;;;6.00;95.80;;;;;;5025109;28;20162;-67
2022/01/09 00:10:10;;;;;;;6.57;4.90;;;6.00;95.80;;;;;;5025547;28;20036;-70
2022/01/09 00:12:36;;;;;;;7.43;5.40;;;6.00;95.80;;;;;;5022598;28;20029;-69
2022/01/09 00:15:03;;;;;;;6.18;5.00;;;6.10;95.90;;;;;;5026404;28;20890;-69
2022/01/09 00:17:28;;;;;;;6.38;4.72;;;6.10;95.90;;;;;;5022406;28;20033;-69
2022/01/09 00:19:54;;;;;;;6.93;4.78;;;6.10;95.90;;;;;;5028090;28;20464;-69
2022/01/09 00:22:28;;;;;;;6.97;5.18;;;6.10;95.90;;;;;;5021318;28;20033;-70
2022/01/09 00:24:54;;;;;;;6.68;5.15;;;6.20;95.90;;;;;;5026235;28;20045;-69
2022/01/09 00:27:20;;;;;;;7.45;5.20;;;6.20;95.80;;;;;;5020785;28;20069;-69
2022/01/09 00:29:45;;;;;;;6.95;5.53;;;6.10;95.80;;;;;;5028416;28;20503;-69
2022/01/09 00:32:11;;;;;;;7.40;5.70;;;6.20;95.80;;;;;;5025070;28;20034;-70
2022/01/09 00:34:36;;;;;;;7.38;5.30;;;6.20;95.70;;;;;;5031311;28;20096;-69
2022/01/09 00:37:02;;;;;;;7.00;4.85;;;6.20;95.70;;;;;;5031333;28;20748;-68
2022/01/09 00:39:27;;;;;;;6.70;5.55;;;6.20;95.70;;;;;;5030586;28;20099;-68
2022/01/09 00:41:53;;;;;;;7.03;5.10;;;6.20;95.70;;;;;;5032150;28;20029;-68
2022/01/09 00:44:19;;;;;;;7.47;5.45;;;6.20;95.70;;;;;;5031500;28;20552;-68
2022/01/09 00:46:44;;;;;;;8.38;5.93;;;6.20;95.70;;;;;;5030405;28;20029;-69
2022/01/09 00:49:11;;;;;;;8.73;5.65;;;6.20;95.70;;;;;;5031187;28;20017;-68
2022/01/09 00:51:36;;;;;;;7.93;5.40;;;6.20;95.70;;;;;;5030588;28;20053;-68
2022/01/09 00:54:02;;;;;;;7.85;6.00;;;6.20;95.70;;;;;;5029677;28;20353;-69
2022/01/09 00:56:27;;;;;;;9.18;7.00;;;6.20;95.70;;;;;;5030672;28;20108;-70
2022/01/09 00:58:53;;;;;;;7.15;5.80;;;6.20;95.80;;;;;;5029379;28;20053;-70
2022/01/09 01:01:19;;;;;;;7.97;6.53;;;6.20;95.80;;;;;;5029185;28;20036;-69
2022/01/09 01:03:44;;;;;;;9.77;7.03;;;6.10;95.80;;;;;;5017447;28;20022;-69
2022/01/09 01:06:10;;;;;;;7.53;5.70;;;6.10;95.80;;;;;;5025492;28;20013;-69
2022/01/09 01:08:35;;;;;;;14.93;8.68;;;6.10;95.90;;;;;;5017733;28;20037;-70
2022/01/09 01:11:03;;;;;;;8.57;6.18;;;6.10;96.00;;;;;;5026180;28;20329;-69
2022/01/09 01:13:28;;;;;;;8.32;6.90;;;6.10;96.00;;;;;;5022563;28;20447;-69
2022/01/09 01:15:55;;;;;;;14.20;7.88;;;6.10;96.00;;;;;;5024763;28;20147;-70
2022/01/09 01:18:21;;;;;;;26.30;12.05;;;6.10;96.00;;;;;;5023536;28;20022;-69
2022/01/09 01:20:46;;;;;;;10.00;6.82;;;6.10;96.00;;;;;;5023048;28;20022;-69
2022/01/09 01:23:12;;;;;;;11.60;7.50;;;6.10;96.10;;;;;;5023671;28;20017;-69
2022/01/09 01:25:39;;;;;;;10.65;7.22;;;6.10;96.10;;;;;;5024594;28;20035;-69
2022/01/09 01:28:05;;;;;;;39.53;14.18;;;6.10;96.30;;;;;;5022717;28;20464;-69
2022/01/09 01:30:31;;;;;;;6.68;5.03;;;6.10;96.40;;;;;;5021815;28;20066;-68
2022/01/09 01:32:56;;;;;;;13.65;5.30;;;6.10;96.40;;;;;;5026995;28;20038;-69
2022/01/09 01:35:22;;;;;;;5.60;3.30;;;6.20;96.50;;;;;;5022733;28;20021;-68
2022/01/09 01:37:47;;;;;;;6.28;3.10;;;6.10;96.60;;;;;;5026292;28;20037;-68
2022/01/09 01:40:18;;;;;;;10.25;3.42;;;6.20;96.50;;;;;;5018973;28;20508;-68
2022/01/09 01:42:45;;;;;;;4.82;2.08;;;6.30;96.50;;;;;;5026358;28;20021;-69
2022/01/09 01:45:12;;;;;;;8.15;3.08;;;6.30;96.40;;;;;;5019944;28;20044;-68
2022/01/09 01:47:38;;;;;;;7.60;2.05;;;6.40;95.80;;;;;;5024988;28;20071;-68
2022/01/09 01:50:06;;;;;;;11.68;2.00;;;6.40;95.70;;;;;;5017887;28;20021;-68
2022/01/09 01:52:38;;;;;;;13.68;2.22;;;6.40;95.80;;;;;;5025492;28;20041;-69
2022/01/09 01:55:09;;;;;;;20.58;3.85;;;6.50;95.80;;;;;;5022756;28;20059;-69
2022/01/09 01:57:37;;;;;;;19.70;3.38;;;6.50;95.80;;;;;;5025390;28;20049;-69
2022/01/09 02:00:09;;;;;;;16.80;3.45;;;6.40;95.90;;;;;;5020462;28;20039;-69
2022/01/09 02:02:34;;;;;;;20.40;3.60;;;6.40;96.00;;;;;;5026074;28;20033;-69
2022/01/09 02:05:00;;;;;;;10.77;2.30;;;6.50;96.00;;;;;;5023257;28;20014;-69
2022/01/09 02:07:28;;;;;;;17.27;3.55;;;6.50;96.00;;;;;;5025069;28;20045;-69
2022/01/09 02:09:54;;;;;;;28.50;4.97;;;6.50;95.90;;;;;;5021486;28;20353;-69
2022/01/09 02:12:19;;;;;;;21.85;4.28;;;6.50;95.90;;;;;;5022352;28;20495;-69
2022/01/09 02:14:47;;;;;;;22.83;4.70;;;6.50;96.30;;;;;;5021584;28;20029;-69
2022/01/09 02:17:20;;;;;;;21.80;4.53;;;6.50;96.20;;;;;;5004544;28;20499;-69
2022/01/09 02:19:57;;;;;;;23.65;4.25;;;6.60;96.20;;;;;;5023173;28;20014;-69
2022/01/09 02:22:27;;;;;;;34.13;5.22;;;6.60;96.10;;;;;;5021963;28;20033;-68
2022/01/09 02:24:52;;;;;;;27.58;5.38;;;6.60;95.90;;;;;;5021153;28;20022;-69
2022/01/09 02:27:18;;;;;;;25.50;4.88;;;6.60;96.40;;;;;;5021637;28;20049;-69
2022/01/09 02:29:48;;;;;;;39.83;6.22;;;6.60;96.30;;;;;;5028806;28;20056;-68
2022/01/09 02:32:16;;;;;;;35.55;7.35;;;6.60;96.40;;;;;;5029046;28;20051;-69
2022/01/09 02:34:46;;;;;;;40.75;7.65;;;6.60;96.50;;;;;;5028144;28;20021;-69
2022/01/09 02:37:12;;;;;;;41.78;5.95;;;6.70;96.50;;;;;;5028343;28;20063;-69
2022/01/09 02:39:39;;;;;;;47.78;7.13;;;6.70;96.40;;;;;;5028511;28;20025;-69
2022/01/09 02:42:27;;;;;;;43.25;7.05;;;6.70;96.50;;;;;;5028354;28;20060;-68
2022/01/09 02:44:57;;;;;;;36.65;6.82;;;6.70;96.50;;;;;;5015248;28;20037;-69
2022/01/09 02:47:25;;;;;;;31.90;5.53;;;6.70;96.50;;;;;;5027338;28;20390;-69
2022/01/09 02:49:53;;;;;;;25.73;5.10;;;6.70;96.60;;;;;;5027947;28;20021;-69
2022/01/09 02:52:35;;;;;;;39.47;7.05;;;6.80;96.50;;;;;;5028046;28;20090;-69
2022/01/09 02:55:14;;;;;;;41.28;6.65;;;6.80;96.50;;;;;;5027668;28;20021;-70
2022/01/09 02:57:41;;;;;;;35.40;5.68;;;6.80;96.50;;;;;;5027652;28;20022;-68
2022/01/09 03:00:10;;;;;;;43.25;7.50;;;6.80;96.40;;;;;;5027844;28;20484;-68
2022/01/09 03:02:36;;;;;;;44.58;6.75;;;6.80;96.30;;;;;;5026507;28;20029;-69
2022/01/09 03:05:04;;;;;;;37.75;6.00;;;6.80;96.30;;;;;;5027763;28;20029;-69
2022/01/09 03:07:30;;;;;;;42.65;7.00;;;6.80;96.70;;;;;;5026372;28;20113;-69
2022/01/09 03:09:55;;;;;;;43.60;7.30;;;6.80;96.50;;;;;;5028012;28;20089;-69
2022/01/09 03:12:22;;;;;;;33.20;6.65;;;6.80;96.50;;;;;;5008534;28;20033;-68
2022/01/09 03:14:48;;;;;;;35.67;6.55;;;6.80;96.50;;;;;;5021943;28;20052;-69
2022/01/09 03:17:14;;;;;;;40.45;6.75;;;6.80;96.50;;;;;;5027731;28;20503;-69
2022/01/09 03:19:39;;;;;;;34.83;6.85;;;6.70;96.60;;;;;;5027881;28;20021;-69
2022/01/09 03:22:05;;;;;;;47.22;7.40;;;6.80;96.60;;;;;;5027858;28;20403;-69
2022/01/09 03:24:33;;;;;;;35.17;6.38;;;6.80;96.60;;;;;;5028952;28;20028;-69
2022/01/09 03:26:58;;;;;;;33.15;6.30;;;6.80;96.60;;;;;;5032099;28;20030;-68
2022/01/09 03:29:24;;;;;;;36.17;5.57;;;6.80;96.50;;;;;;5030421;28;20025;-69
2022/01/09 03:31:52;;;;;;;46.92;7.45;;;6.80;96.40;;;;;;5031756;28;20089;-69
2022/01/09 03:34:17;;;;;;;34.22;5.97;;;6.80;96.30;;;;;;5032261;28;20213;-69
2022/01/09 03:36:43;;;;;;;28.65;5.50;;;6.80;96.50;;;;;;5031677;28;20746;-69
2022/01/09 03:39:08;;;;;;;31.05;5.82;;;6.80;96.30;;;;;;5031157;28;20097;-69
2022/01/09 03:41:35;;;;;;;27.80;5.40;;;6.80;96.20;;;;;;5031409;28;20022;-70
2022/01/09 03:44:00;;;;;;;33.03;5.32;;;6.80;96.20;;;;;;5031905;28;20025;-69
2022/01/09 03:46:26;;;;;;;37.05;6.80;;;6.70;96.10;;;;;;5031638;28;20029;-68
2022/01/09 03:48:51;;;;;;;43.20;7.28;;;6.80;96.20;;;;;;5031837;28;20053;-70
2022/01/09 03:51:17;;;;;;;34.05;5.32;;;6.70;96.20;;;;;;5029977;28;20037;-69
2022/01/09 03:53:42;;;;;;;24.30;5.07;;;6.80;96.20;;;;;;5029593;28;20087;-69
2022/01/09 03:56:08;;;;;;;27.33;5.00;;;6.70;96.10;;;;;;5030873;28;20048;-68
2022/01/09 03:58:36;;;;;;;44.08;6.13;;;6.80;96.00;;;;;;5030961;28;20093;-68
2022/01/09 04:01:06;;;;;;;26.08;5.10;;;6.80;96.00;;;;;;5031422;28;20079;-68
2022/01/09 04:03:33;;;;;;;;;;;6.80;95.90;;;;;;5031586;28;20053;-69
2022/01/09 04:06:00;;;;;;;30.45;5.20;;;6.80;95.70;;;;;;5030313;28;20061;-69
2022/01/09 04:08:26;;;;;;;31.65;4.93;;;6.80;95.70;;;;;;5030479;28;20053;-69
2022/01/09 04:10:54;;;;;;;27.77;4.65;;;6.80;95.70;;;;;;5030450;28;20458;-69
2022/01/09 04:13:20;;;;;;;33.15;4.80;;;6.80;95.60;;;;;;5030379;28;20468;-68
2022/01/09 04:15:49;;;;;;;28.27;5.15;;;6.80;95.60;;;;;;5030715;28;20037;-70
2022/01/09 04:18:19;;;;;;;29.50;5.70;;;6.70;95.60;;;;;;5019370;28;20021;-70
2022/01/09 04:20:46;;;;;;;;;;;6.80;95.60;;;;;;5031360;28;20033;-69
2022/01/09 04:23:12;;;;;;;27.75;5.22;;;6.80;95.60;;;;;;5030470;28;19905;-69
2022/01/09 04:25:41;;;;;;;27.98;4.97;;;6.80;95.50;;;;;;5030858;28;20459;-69
2022/01/09 04:28:07;;;;;;;30.80;5.03;;;6.70;95.60;;;;;;5030419;28;20025;-69
2022/01/09 04:30:32;;;;;;;28.05;5.25;;;6.70;95.70;;;;;;5030600;28;20294;-69
2022/01/09 04:32:58;;;;;;;21.00;4.95;;;6.70;95.60;;;;;;5030488;28;20045;-69
2022/01/09 04:35:24;;;;;;;34.90;4.60;;;6.70;95.60;;;;;;5031060;28;20021;-69
2022/01/09 04:37:49;;;;;;;26.55;4.72;;;6.70;95.50;;;;;;5029683;28;20021;-69
2022/01/09 04:40:18;;;;;;;23.60;3.78;;;6.80;95.50;;;;;;5030273;28;20037;-68
2022/01/09 04:42:51;;;;;;;21.60;5.22;;;6.80;95.40;;;;;;5030097;28;20675;-69
2022/01/09 04:45:18;;;;;;;26.42;3.90;;;6.70;95.30;;;;;;5030424;28;20494;-69
2022/01/09 04:47:48;;;;;;;37.45;6.38;;;6.70;95.40;;;;;;5030155;28;20057;-69
2022/01/09 04:50:19;;;;;;;;;;;6.80;95.30;;;;;;5030886;28;20108;-69
2022/01/09 04:52:46;;;;;;;27.08;4.75;;;6.70;95.40;;;;;;5028102;28;19921;-69
2022/01/09 04:55:11;;;;;;;25.38;4.10;;;6.70;95.20;;;;;;5030582;28;20029;-70
2022/01/09 04:57:37;;;;;;;20.23;3.97;;;6.60;95.10;;;;;;5031744;28;20063;-71
2022/01/09 05:00:05;;;;;;;28.90;4.90;;;6.60;95.10;;;;;;5022226;28;20033;-70
2022/01/09 05:02:30;;;;;;;27.58;5.07;;;6.60;95.10;;;;;;5030295;28;20022;-69
2022/01/09 05:04:56;;;;;;;21.13;3.50;;;6.60;94.90;;;;;;5032864;28;20021;-68
2022/01/09 05:07:22;;;;;;;22.75;4.28;;;6.60;94.80;;;;;;5029498;28;20124;-68
2022/01/09 05:09:48;;;;;;;27.17;5.07;;;6.60;94.90;;;;;;5030618;28;20097;-68
2022/01/09 05:12:14;;;;;;;27.88;4.55;;;6.50;94.80;;;;;;5030519;28;20061;-68
2022/01/09 05:15:16;;;;;;;18.98;3.97;;;6.50;94.70;;;;;;5030491;28;20018;-68
2022/01/09 05:18:11;;;;;;;21.95;5.60;;;6.50;94.80;;;;;;5048749;28;20573;-68
2022/01/09 05:20:36;;;;;;;23.88;4.30;;;6.50;94.80;;;;;;5040622;28;20490;-68
2022/01/09 05:26:42;;;;;;;27.02;4.80;;;6.50;94.60;;;;;;5034686;28;20811;-68
2022/01/09 05:29:07;;;;;;;21.92;4.82;;;6.50;94.60;;;;;;5041477;28;20039;-68
2022/01/09 05:31:33;;;;;;;30.60;4.90;;;6.40;94.40;;;;;;5046922;28;20518;-68
2022/01/09 05:34:01;;;;;;;22.42;4.63;;;6.40;94.60;;;;;;5047373;28;20044;-68
2022/01/09 05:36:26;;;;;;;28.10;4.70;;;6.40;94.60;;;;;;5041892;28;20073;-68
2022/01/09 05:38:52;;;;;;;22.17;4.55;;;6.40;94.30;;;;;;5039847;28;20065;-68
2022/01/09 05:41:17;;;;;;;29.88;4.95;;;6.40;94.40;;;;;;5042566;28;20033;-68
2022/01/09 05:43:43;;;;;;;25.85;5.20;;;6.40;94.40;;;;;;5039050;28;20423;-68
2022/01/09 05:46:11;;;;;;;19.95;4.38;;;6.30;94.50;;;;;;5036372;28;20040;-68
2022/01/09 05:48:37;;;;;;;20.98;4.88;;;6.30;94.20;;;;;;5029235;28;20492;-69
2022/01/09 05:51:02;;;;;;;27.65;5.53;;;6.30;94.20;;;;;;5025595;28;20052;-68
2022/01/09 05:53:28;;;;;;;20.90;4.60;;;6.30;94.20;;;;;;5019676;28;20041;-68
2022/01/09 05:55:53;;;;;;;17.98;4.47;;;6.20;94.30;;;;;;5027410;28;20022;-68
2022/01/09 05:58:19;;;;;;;29.17;5.40;;;6.20;94.20;;;;;;5026626;28;20487;-69
2022/01/09 06:00:47;;;;;;;23.60;4.28;;;6.20;94.20;;;;;;5034590;28;20075;-68
2022/01/09 06:03:12;;;;;;;23.90;5.40;;;6.30;94.80;;;;;;5024311;28;20022;-68
2022/01/09 06:05:38;;;;;;;24.45;4.70;;;6.20;94.40;;;;;;5029581;28;20037;-68
2022/01/09 06:08:10;;;;;;;41.33;7.47;;;6.20;94.30;;;;;;5029044;28;20026;-68
2022/01/09 06:10:35;;;;;;;25.42;5.70;;;6.20;94.20;;;;;;5029150;28;20052;-68
2022/01/09 06:13:01;;;;;;;21.40;4.20;;;6.20;94.30;;;;;;5029186;28;20116;-68
2022/01/09 06:15:26;;;;;;;25.80;5.55;;;6.20;94.50;;;;;;5027432;28;20447;-68
2022/01/09 06:17:52;;;;;;;27.73;5.35;;;6.20;94.40;;;;;;5021183;28;20084;-68
2022/01/09 06:20:17;;;;;;;28.75;4.30;;;6.20;94.50;;;;;;5027455;28;20033;-69
2022/01/09 06:22:44;;;;;;;19.58;4.32;;;6.30;94.60;;;;;;5027260;28;20064;-68
2022/01/09 06:25:10;;;;;;;29.25;6.63;;;6.20;94.40;;;;;;5026539;28;20387;-67
2022/01/09 06:27:36;;;;;;;25.70;5.35;;;6.30;94.50;;;;;;5027401;28;20108;-68
2022/01/09 06:30:07;;;;;;;31.83;6.85;;;6.30;94.30;;;;;;5026890;28;20025;-68
2022/01/09 06:32:33;;;;;;;22.23;6.40;;;6.20;94.20;;;;;;5028347;28;20034;-69
2022/01/09 06:34:59;;;;;;;23.35;3.97;;;6.30;94.40;;;;;;5027077;28;20380;-67
2022/01/09 06:37:25;;;;;;;21.80;4.60;;;6.30;94.20;;;;;;5026262;28;20021;-68
2022/01/09 06:39:50;;;;;;;23.00;4.07;;;6.30;94.40;;;;;;5027400;28;20030;-68
2022/01/09 06:42:16;;;;;;;20.88;4.28;;;6.20;94.30;;;;;;5028071;28;20029;-68
2022/01/09 06:44:42;;;;;;;19.80;3.83;;;6.20;94.30;;;;;;5027857;28;20116;-69
2022/01/09 06:47:07;;;;;;;24.95;5.45;;;6.20;94.30;;;;;;5027289;28;20408;-68
2022/01/09 06:49:34;;;;;;;18.90;3.35;;;6.20;93.90;;;;;;5027627;28;20175;-68
2022/01/09 06:52:01;;;;;;;26.88;4.25;;;6.20;93.80;;;;;;5026893;28;20049;-69
2022/01/09 06:54:27;;;;;;;23.48;3.90;;;6.20;93.80;;;;;;5027500;28;20037;-68
2022/01/09 06:56:53;;;;;;;15.20;5.05;;;6.10;93.60;;;;;;5027994;28;20164;-68
2022/01/09 06:59:19;;;;;;;19.05;3.90;;;6.00;93.50;;;;;;5027437;28;20100;-68
2022/01/09 07:01:45;;;;;;;18.50;5.13;;;6.00;93.60;;;;;;5020014;28;20022;-68
2022/01/09 07:04:10;;;;;;;20.33;4.72;;;6.00;94.00;;;;;;5024712;28;20567;-68
2022/01/09 07:06:36;;;;;;;33.33;7.75;;;5.90;93.70;;;;;;5016184;28;20059;-68
2022/01/09 07:09:03;;;;;;;28.00;5.03;;;5.90;93.90;;;;;;5027491;28;20026;-68
2022/01/09 07:11:28;;;;;;;22.25;4.55;;;5.90;93.80;;;;;;5025576;28;20545;-68
2022/01/09 07:13:54;;;;;;;20.90;4.88;;;5.90;94.00;;;;;;5026407;28;20033;-69
2022/01/09 07:16:20;;;;;;;18.45;3.45;;;5.90;94.00;;;;;;5026889;28;20021;-69
2022/01/09 07:18:46;;;;;;;18.75;4.88;;;5.90;93.90;;;;;;5026804;28;20028;-68
2022/01/09 07:21:11;;;;;;;30.00;6.03;;;5.90;94.40;;;;;;5027754;28;20487;-69
2022/01/09 07:23:37;;;;;;;26.40;5.07;;;5.90;94.00;;;;;;5027044;28;20523;-68
2022/01/09 07:26:02;;;;;;;24.00;5.72;;;5.90;93.90;;;;;;5027340;28;20025;-67
2022/01/09 07:28:28;;;;;;;21.02;4.00;;;5.80;93.80;;;;;;5026007;28;20029;-69
2022/01/09 07:30:54;;;;;;;21.30;5.22;;;5.90;93.80;;;;;;5027122;28;20380;-69
2022/01/09 07:33:20;;;;;;;18.83;4.25;;;5.90;93.80;;;;;;5026954;28;20073;-69
2022/01/09 07:35:45;;;;;;;18.15;3.47;;;5.80;93.90;;;;;;5025378;28;20056;-69
2022/01/09 07:38:11;;;;;;;24.20;3.95;;;5.90;93.90;;;;;;5026667;28;20021;-69
2022/01/09 07:40:37;;;;;;;20.45;3.83;;;5.80;93.70;;;;;;5027617;28;20025;-69
2022/01/09 07:43:02;;;;;;;22.90;4.78;;;5.80;93.90;;;;;;5026334;28;20033;-69
2022/01/09 07:45:29;;;;;;;16.20;3.80;;;5.90;93.90;;;;;;5027120;28;20044;-69
2022/01/09 07:47:57;;;;;;;20.13;3.35;;;5.90;93.70;;;;;;5026999;28;20096;-69
2022/01/09 07:50:24;;;;;;;19.15;4.38;;;5.80;93.90;;;;;;5026801;28;20030;-70
2022/01/09 07:52:50;;;;;;;15.00;3.45;;;5.80;93.60;;;;;;5024914;28;20160;-69
2022/01/09 07:55:18;;;;;;;17.17;3.25;;;5.80;94.10;;;;;;5023621;28;20022;-69
2022/01/09 07:57:44;;;;;;;20.23;4.13;;;5.80;93.50;;;;;;5016824;28;20062;-69
2022/01/09 08:00:11;;;;;;;10.93;3.10;;;5.80;93.50;;;;;;5023329;28;20447;-69
2022/01/09 08:02:37;;;;;;;17.35;3.08;;;5.70;93.40;;;;;;5018807;28;20033;-69
2022/01/09 08:05:03;;;;;;;12.82;3.45;;;5.70;93.70;;;;;;5022501;28;20013;-69
2022/01/09 08:07:29;;;;;;;18.65;4.07;;;5.70;93.30;;;;;;5016078;28;20112;-69
2022/01/09 08:09:54;;;;;;;13.25;3.00;;;5.70;93.60;;;;;;5025376;28;20045;-70
2022/01/09 08:12:22;;;;;;;12.65;3.95;;;5.60;93.30;;;;;;5018029;28;20046;-68
2022/01/09 08:14:48;;;;;;;19.60;4.03;;;5.70;94.00;;;;;;5028766;28;20075;-67
2022/01/09 08:17:14;;;;;;;11.43;3.10;;;5.70;93.50;;;;;;5022017;28;20058;-68
2022/01/09 08:19:40;;;;;;;13.88;2.58;;;5.60;93.70;;;;;;5028698;28;20033;-67
2022/01/09 08:22:07;;;;;;;11.63;2.83;;;5.60;93.30;;;;;;5024656;28;20018;-69
2022/01/09 08:24:33;;;;;;;12.80;2.40;;;5.60;93.20;;;;;;5024320;28;20032;-69
2022/01/09 08:26:59;;;;;;;11.18;2.85;;;5.60;93.20;;;;;;5021574;28;20088;-69
2022/01/09 08:29:25;;;;;;;14.80;3.15;;;5.60;93.50;;;;;;5019745;28;20479;-68
2022/01/09 08:31:50;;;;;;;16.23;2.67;;;5.70;93.40;;;;;;5027182;28;20431;-68
2022/01/09 08:34:16;;;;;;;16.27;2.58;;;5.70;93.40;;;;;;5023906;28;20021;-68
2022/01/09 08:36:43;;;;;;;9.23;2.55;;;5.70;93.50;;;;;;5026037;28;20101;-69
2022/01/09 08:39:10;;;;;;;7.63;2.08;;;5.70;93.20;;;;;;5029024;28;20386;-68
2022/01/09 08:41:36;;;;;;;12.90;2.40;;;5.80;93.10;;;;;;5029350;28;20025;-68
2022/01/09 08:44:04;;;;;;;12.10;2.83;;;5.80;93.10;;;;;;5027932;28;20033;-68
2022/01/09 08:46:31;;;;;;;13.73;3.13;;;5.80;93.20;;;;;;5022745;28;20043;-69
2022/01/09 08:48:57;;;;;;;10.95;2.55;;;5.90;93.30;;;;;;5019057;28;20104;-69
2022/01/09 08:51:23;;;;;;;14.32;2.53;;;5.90;93.50;;;;;;5022292;28;20093;-69
2022/01/09 08:53:51;;;;;;;14.45;2.30;;;6.00;93.20;;;;;;5020034;28;20034;-68
2022/01/09 08:56:18;;;;;;;10.38;2.08;;;;;;;;;;5022085;28;20029;-68
2022/01/09 08:58:45;;;;;;;16.05;4.75;;;;;;;;;;5013854;28;20026;-69
2022/01/09 09:01:11;;;;;;;15.05;3.58;;;;;;;;;;5021990;28;20026;-68
2022/01/09 09:03:40;;;;;;;13.75;5.40;;;;;;;;;;5022413;28;20105;-68
2022/01/09 09:06:10;;;;;;;15.60;3.55;;;;;;;;;;5019178;28;20029;-68
2022/01/09 09:08:37;;;;;;;21.73;5.22;;;;;;;;;;5016537;28;20049;-69
2022/01/09 09:11:03;;;;;;;12.63;3.00;;;;;;;;;;5019028;28;20022;-68
2022/01/09 09:13:29;;;;;;;14.63;3.47;;;;;;;;;;5020411;28;20096;-69
2022/01/09 09:15:55;;;;;;;11.45;3.25;;;;;;;;;;5021525;28;20026;-69
2022/01/09 09:18:24;;;;;;;12.55;5.13;;;;;;;;;;5021723;28;20034;-70
2022/01/09 09:20:50;;;;;;;8.45;2.90;;;;;;;;;;5020210;28;20057;-69
2022/01/09 09:23:16;;;;;;;10.80;2.50;;;;;;;;;;5021366;28;20136;-69
2022/01/09 09:25:42;;;;;;;14.82;2.70;;;;;;;;;;5022091;28;20101;-69
2022/01/09 09:28:08;;;;;;;10.27;1.98;;;;;;;;;;5018791;28;20104;-68
2022/01/09 09:30:35;;;;;;;15.27;3.28;;;;;;;;;;5020958;28;20022;-69
2022/01/09 09:33:02;;;;;;;17.40;3.85;;;;;;;;;;5021031;28;20034;-70
2022/01/09 09:35:28;;;;;;;8.00;2.33;;;;;;;;;;5022465;28;20053;-69
2022/01/09 09:37:54;;;;;;;12.95;2.70;;;;;;;;;;5023643;28;20025;-70
2022/01/09 09:40:21;;;;;;;12.43;3.03;;;;;;;;;;5023470;28;20025;-69
2022/01/09 09:42:47;;;;;;;9.13;2.38;;;;;;;;;;5022032;28;20084;-70
2022/01/09 09:45:13;;;;;;;9.32;2.35;;;;;;;;;;5022297;28;20032;-69
2022/01/09 09:47:40;;;;;;;10.32;2.50;;;;;;;;;;5022130;28;20515;-69
2022/01/09 09:50:07;;;;;;;15.63;3.20;;;;;;;;;;5021209;28;20086;-69
2022/01/09 09:52:34;;;;;;;14.30;3.90;;;;;;;;;;5019821;28;20162;-70
2022/01/09 09:55:00;;;;;;;17.55;2.88;;;;;;;;;;5020460;28;20053;-70
2022/01/09 09:57:27;;;;;;;10.63;2.42;;;;;;;;;;5022981;28;20029;-71
2022/01/09 10:00:13;;;;;;;12.02;2.20;;;;;;;;;;5020405;28;20095;-70
2022/01/09 10:02:51;;;;;;;15.85;3.13;;;;;;;;;;5021798;28;20044;-68
2022/01/09 10:05:18;;;;;;;12.30;2.90;;;;;;;;;;5020719;28;20034;-69
2022/01/09 10:07:44;;;;;;;17.70;3.78;;;;;;;;;;5021311;28;20649;-69
2022/01/09 10:10:14;;;;;;;17.65;3.72;;;;;;;;;;5022458;28;20029;-71
2022/01/09 10:12:40;;;;;;;9.88;2.47;;;;;;;;;;5022827;28;20461;-71
2022/01/09 10:15:08;;;;;;;11.25;2.75;;;;;;;;;;5021461;28;20037;-71
2022/01/09 10:17:35;;;;;;;11.98;3.05;;;;;;;;;;5022709;28;20102;-72
2022/01/09 10:20:02;;;;;;;13.35;2.53;;;;;;;;;;5023510;28;20022;-71
2022/01/09 10:22:33;;;;;;;8.93;2.55;;;;;;;;;;5022710;28;20079;-71
2022/01/09 10:24:59;;;;;;;;;;;;;;;;;;5022291;28;20025;-71
2022/01/09 10:27:29;;;;;;;13.68;2.35;;;;;;;;;;5020686;28;20511;-71
2022/01/09 10:29:55;;;;;;;10.40;2.58;;;;;;;;;;5019868;28;20071;-68
2022/01/09 10:32:24;;;;;;;18.77;3.42;;;;;;;;;;5018567;28;20045;-68
2022/01/09 10:35:20;;;;;;;10.60;2.50;;;;;;;;;;5019211;28;20180;-68
2022/01/09 10:37:47;;;;;;;15.77;3.63;;;;;;;;;;5024904;28;20144;-69
2022/01/09 10:40:21;;;;;;;16.85;3.15;;;;;;;;;;5019383;28;20033;-69
2022/01/09 10:43:00;;;;;;;9.68;2.78;;;;;;;;;;5020968;28;20033;-68
2022/01/09 10:45:26;;;;;;;17.63;2.97;;;;;;;;;;5019263;28;20657;-68
2022/01/09 10:47:55;;;;;;;17.42;3.10;;;;;;;;;;5017217;28;20491;-68
2022/01/09 10:50:29;;;;;;;15.70;3.35;;;;;;;;;;5018998;28;20026;-69
2022/01/09 10:53:11;;;;;;;19.27;4.60;;;;;;;;;;5021261;28;20431;-69
2022/01/09 10:55:38;;;;;;;14.50;3.65;;;;;;;;;;5020771;28;20402;-69
2022/01/09 10:58:21;;;;;;;16.88;3.30;;;;;;;;;;5021876;28;20033;-69
2022/01/09 11:00:47;;;;;;;15.98;3.10;;;;;;;;;;5017492;28;20083;-68
2022/01/09 11:03:14;;;;;;;12.55;3.35;;;;;;;;;;5021061;28;20029;-69
2022/01/09 11:05:40;;;;;;;16.23;4.15;;;;;;;;;;5019494;28;20026;-70
2022/01/09 11:08:07;;;;;;;17.60;3.88;;;;;;;;;;5021257;28;20028;-70
2022/01/09 11:10:33;;;;;;;16.80;3.30;;;;;;;;;;5020802;28;20507;-69
2022/01/09 11:13:01;;;;;;;8.45;2.97;;;;;;;;;;5020890;28;20037;-70
2022/01/09 11:15:40;;;;;;;17.65;3.25;;;;;;;;;;5020184;28;20146;-69
2022/01/09 11:18:06;;;;;;;13.32;3.15;;;;;;;;;;5019874;28;20037;-69
2022/01/09 11:20:34;;;;;;;16.63;3.53;;;;;;;;;;5021266;28;20052;-70
2022/01/09 11:23:00;;;;;;;13.65;3.08;;;;;;;;;;5019746;28;20033;-69
2022/01/09 11:25:26;;;;;;;12.32;3.08;;;;;;;;;;5020991;28;20483;-70
2022/01/09 11:27:56;;;;;;;12.73;3.22;;;;;;;;;;5020088;28;20117;-69
2022/01/09 11:30:34;;;;;;;18.30;3.17;;;;;;;;;;5020705;28;20021;-69
2022/01/09 11:33:26;;;;;;;14.23;2.60;;;;;;;;;;5021256;28;20029;-70
2022/01/09 11:35:58;;;;;;;10.95;3.17;;;;;;;;;;5011350;28;20171;-69
2022/01/09 11:38:24;;;;;;;12.38;3.38;;;;;;;;;;5019558;28;20025;-69
2022/01/09 11:40:50;;;;;;;11.48;2.95;;;;;;;;;;5020620;28;20542;-68
2022/01/09 11:43:17;;;;;;;16.83;2.65;;;;;;;;;;5019646;28;20037;-69
2022/01/09 11:45:46;;;;;;;11.88;3.15;;;;;;;;;;5021836;28;20119;-70
2022/01/09 11:48:13;;;;;;;11.68;2.65;;;;;;;;;;5025118;28;20083;-69
2022/01/09 11:50:57;;;;;;;10.90;2.45;;;;;;;;;;5024539;28;20037;-68
2022/01/09 11:53:24;;;;;;;12.55;3.35;;;;;;;;;;5022395;28;20037;-69
2022/01/09 11:55:51;;;;;;;16.20;3.05;;;;;;;;;;5024304;28;20064;-68
2022/01/09 11:58:20;;;;;;;11.30;2.85;;;;;;;;;;5022173;28;20051;-72
2022/01/09 12:00:47;;;;;;;11.98;3.53;;;;;;;;;;5025088;28;20494;-70
2022/01/09 12:03:30;;;;;;;15.27;4.70;;;;;;;;;;5025238;28;20021;-68
2022/01/09 12:06:00;;;;;;;12.43;2.97;;;;;;;;;;5024738;28;20112;-69
2022/01/09 12:08:26;;;;;;;12.90;3.50;;;;;;;;;;5024290;28;20021;-69
2022/01/09 12:10:53;;;;;;;17.67;3.85;;;;;;;;;;5025440;28;20140;-69
2022/01/09 12:13:40;;;;;;;14.38;3.67;;;;;;;;;;5022491;28;20771;-69
2022/01/09 12:16:07;;;;;;;13.55;3.03;;;;;;;;;;5022994;28;20030;-70
2022/01/09 12:18:45;;;;;;;14.43;3.80;;;;;;;;;;5023343;28;20049;-70
2022/01/09 12:21:31;;;;;;;14.02;2.70;;;;;;;;;;5021256;28;20078;-69
2022/01/09 12:24:16;;;;;;;15.20;3.35;;;;;;;;;;5023938;28;20033;-68
2022/01/09 12:26:42;;;;;;;10.07;2.95;;;;;;;;;;5022987;28;20018;-68
2022/01/09 12:29:08;;;;;;;13.93;3.30;;;;;;;;;;5024951;28;20137;-70
2022/01/09 12:31:34;;;;;;;14.95;3.20;;;;;;;;;;5024091;28;20108;-69
2022/01/09 12:34:00;;;;;;;15.90;3.28;;;;;;;;;;5023277;28;20041;-69
2022/01/09 12:36:30;;;;;;;15.63;2.80;;;;;;;;;;5023631;28;20029;-69
2022/01/09 12:38:57;;;;;;;10.82;2.58;;;;;;;;;;5020584;28;20527;-69
2022/01/09 12:41:31;;;;;;;11.05;2.85;;;;;;;;;;5024486;28;20028;-69
2022/01/09 12:44:04;;;;;;;12.32;3.85;;;;;;;;;;5021230;28;20026;-70
2022/01/09 12:46:33;;;;;;;13.32;3.42;;;;;;;;;;5020114;28;20092;-68
2022/01/09 12:49:09;;;;;;;11.18;2.60;;;;;;;;;;5021958;28;20047;-69
2022/01/09 12:51:36;;;;;;;15.50;2.95;;;14.30;66.80;;;;;;5023036;28;20458;-68
2022/01/09 12:54:07;;;;;;;14.45;3.17;;;13.90;61.20;;;;;;5022659;28;20033;-70
2022/01/09 12:56:38;;;;;;;14.48;3.60;;;13.40;65.20;;;;;;5020789;28;20037;-68
2022/01/09 12:59:07;;;;;;;14.27;3.90;;;13.00;66.90;;;;;;5021402;28;20360;-69
2022/01/09 13:01:53;;;;;;;8.80;2.42;;;12.90;67.10;;;;;;5021483;28;20065;-70
2022/01/09 13:04:22;;;;;;;11.15;2.50;;;12.90;70.00;;;;;;5023861;28;20045;-72
2022/01/09 13:06:52;;;;;;;11.63;2.30;;;13.00;69.20;;;;;;5023775;28;20026;-68
2022/01/09 13:09:19;;;;;;;12.38;2.40;;;13.30;67.50;;;;;;5024617;28;20500;-69
2022/01/09 13:11:51;;;;;;;11.02;2.55;;;13.60;68.20;;;;;;5025004;28;20040;-70
2022/01/09 13:14:16;;;;;;;15.50;3.05;;;14.00;67.30;;;;;;5023685;28;20042;-69
2022/01/09 13:16:44;;;;;;;11.35;2.63;;;14.30;66.20;;;;;;5022472;28;20021;-69
2022/01/09 13:19:14;;;;;;;10.32;2.38;;;14.60;66.50;;;;;;5023176;28;20029;-69
2022/01/09 13:21:49;;;;;;;9.75;2.90;;;;;;;;;;5023237;28;20021;-70
2022/01/09 13:24:19;;;;;;;11.45;2.47;;;;;;;;;;5021964;28;20495;-71